createdAt,value
2022-09-09T00:03:09.018Z,15.91
2022-09-09T00:06:21.543Z,15.96
2022-09-09T00:09:28.658Z,16.06
2022-09-09T00:12:41.508Z,16.06
2022-09-09T00:15:55.546Z,16.05
2022-09-09T00:19:05.209Z,15.96
2022-09-09T00:22:18.242Z,15.93
2022-09-09T00:25:31.433Z,15.95
2022-09-09T00:28:40.966Z,15.86
2022-09-09T00:31:43.798Z,15.85
2022-09-09T00:34:51.215Z,15.81
2022-09-09T00:38:00.176Z,15.70
2022-09-09T00:41:08.536Z,15.69
2022-09-09T00:44:27.112Z,15.67
2022-09-09T00:47:43.450Z,15.71
2022-09-09T00:50:53.312Z,15.73
2022-09-09T00:54:28.627Z,15.90
2022-09-09T00:57:35.016Z,15.87
2022-09-09T01:00:44.350Z,15.82
2022-09-09T01:03:54.101Z,15.74
2022-09-09T01:07:18.516Z,15.69
2022-09-09T01:10:42.639Z,15.72
2022-09-09T01:13:47.733Z,15.65
2022-09-09T01:16:50.968Z,15.60
2022-09-09T01:20:06.331Z,15.64
2022-09-09T01:23:35.210Z,15.67
2022-09-09T01:26:41.536Z,15.75
2022-09-09T01:29:44.217Z,15.79
2022-09-09T01:32:48.605Z,15.82
2022-09-09T01:35:56.361Z,15.84
2022-09-09T01:39:00.903Z,15.89
2022-09-09T01:42:07.087Z,15.86
2022-09-09T01:45:10.944Z,15.81
2022-09-09T01:48:13.521Z,15.75
2022-09-09T01:51:16.064Z,15.79
2022-09-09T01:54:21.327Z,15.81
2022-09-09T01:57:29.719Z,15.86
2022-09-09T02:00:36.746Z,15.88
2022-09-09T02:03:39.314Z,15.95
2022-09-09T02:06:42.454Z,15.91
2022-09-09T02:09:49.193Z,15.95
2022-09-09T02:12:57.820Z,15.97
2022-09-09T02:16:06.795Z,16.04
2022-09-09T02:19:14.176Z,16.02
2022-09-09T02:22:19.762Z,15.97
2022-09-09T02:25:25.807Z,16.02
2022-09-09T02:28:34.195Z,16.03
2022-09-09T02:31:38.968Z,15.96
2022-09-09T02:34:44.787Z,15.96
2022-09-09T02:37:48.068Z,15.94
2022-09-09T02:40:50.696Z,15.91
2022-09-09T02:43:54.726Z,15.96
2022-09-09T02:47:15.229Z,16.11
2022-09-09T02:50:22.109Z,16.04
2022-09-09T02:53:30.026Z,16.00
2022-09-09T02:56:39.195Z,15.99
2022-09-09T02:59:45.442Z,16.00
2022-09-09T03:02:48.059Z,15.90
2022-09-09T03:05:50.677Z,15.87
2022-09-09T03:08:55.163Z,15.83
2022-09-09T03:11:57.793Z,15.87
2022-09-09T03:15:01.775Z,16.01
2022-09-09T03:18:04.355Z,15.97
2022-09-09T03:21:07.933Z,16.00
2022-09-09T03:24:10.684Z,15.90
2022-09-09T03:27:13.209Z,15.78
2022-09-09T03:30:17.748Z,15.85
2022-09-09T03:33:20.328Z,15.86
2022-09-09T03:36:25.500Z,15.83
2022-09-09T03:39:28.059Z,15.82
2022-09-09T03:42:31.665Z,15.79
2022-09-09T03:45:38.173Z,15.81
2022-09-09T03:48:43.792Z,15.76
2022-09-09T03:51:46.310Z,15.78
2022-09-09T03:54:53.043Z,15.76
2022-09-09T03:57:58.500Z,15.81
2022-09-09T04:01:06.040Z,15.78
2022-09-09T04:04:09.910Z,15.67
2022-09-09T04:07:12.860Z,15.67
2022-09-09T04:10:16.832Z,15.73
2022-09-09T04:13:21.793Z,15.72
2022-09-09T04:16:27.236Z,15.83
2022-09-09T04:19:29.833Z,15.73
2022-09-09T04:22:32.982Z,15.64
2022-09-09T04:25:35.944Z,15.57
2022-09-09T04:28:39.320Z,15.57
2022-09-09T04:31:44.511Z,15.59
2022-09-09T04:34:48.794Z,15.57
2022-09-09T04:37:53.504Z,15.63
2022-09-09T04:40:58.121Z,15.57
2022-09-09T04:44:01.878Z,15.58
2022-09-09T04:47:06.005Z,15.61
2022-09-09T04:50:09.901Z,15.58
2022-09-09T04:53:14.661Z,15.58
2022-09-09T04:56:19.341Z,15.57
2022-09-09T04:59:22.873Z,15.46
2022-09-09T05:02:31.352Z,15.52
2022-09-09T05:05:35.713Z,15.53
2022-09-09T05:08:38.970Z,15.56
2022-09-09T05:11:41.734Z,15.55
2022-09-09T05:14:44.640Z,15.58
2022-09-09T05:17:48.718Z,15.64
2022-09-09T05:20:52.019Z,15.70
2022-09-09T05:23:54.717Z,15.78
2022-09-09T05:26:59.139Z,15.70
2022-09-09T05:30:03.871Z,15.70
2022-09-09T05:33:10.317Z,15.81
2022-09-09T05:36:15.053Z,15.77
2022-09-09T05:39:17.554Z,15.78
2022-09-09T05:42:19.995Z,15.81
2022-09-09T05:45:22.472Z,15.88
2022-09-09T05:48:26.383Z,16.01
2022-09-09T05:51:31.939Z,16.08
2022-09-09T05:54:34.569Z,16.26
2022-09-09T05:57:37.032Z,16.27
2022-09-09T06:00:39.476Z,16.47
2022-09-09T06:03:45.236Z,16.65
2022-09-09T06:06:47.711Z,16.70
2022-09-09T06:09:52.351Z,16.77
2022-09-09T06:12:55.421Z,16.77
2022-09-09T06:15:59.365Z,16.93
2022-09-09T06:19:04.759Z,17.23
2022-09-09T06:22:07.330Z,17.38
2022-09-09T06:25:10.979Z,17.32
2022-09-09T06:28:14.488Z,17.40
2022-09-09T06:31:24.120Z,17.40
2022-09-09T06:34:31.315Z,18.04
2022-09-09T06:37:33.846Z,18.39
2022-09-09T06:40:36.591Z,18.54
2022-09-09T06:43:39.156Z,18.63
2022-09-09T06:46:41.932Z,18.91
2022-09-09T06:49:48.342Z,19.01
2022-09-09T06:52:51.010Z,18.90
2022-09-09T06:55:53.464Z,18.88
2022-09-09T06:58:58.012Z,19.36
2022-09-09T07:02:00.636Z,19.58
2022-09-09T07:05:05.166Z,20.27
2022-09-09T07:08:07.600Z,20.56
2022-09-09T07:11:12.584Z,20.85
2022-09-09T07:14:15.496Z,21.19
2022-09-09T07:17:17.914Z,21.50
2022-09-09T07:20:21.716Z,21.72
2022-09-09T07:23:24.353Z,21.91
2022-09-09T07:26:29.467Z,21.90
2022-09-09T07:29:32.295Z,22.10
2022-09-09T07:32:34.746Z,22.17
2022-09-09T07:35:38.735Z,22.49
2022-09-09T07:38:41.675Z,22.79
2022-09-09T07:41:45.756Z,22.96
2022-09-09T07:44:48.211Z,23.11
2022-09-09T07:47:50.802Z,23.35
2022-09-09T07:50:54.731Z,23.40
2022-09-09T07:53:59.478Z,23.55
2022-09-09T07:57:01.898Z,23.13
2022-09-09T08:00:06.002Z,23.03
2022-09-09T08:03:08.652Z,23.33
2022-09-09T08:06:13.614Z,23.36
2022-09-09T08:09:17.503Z,23.43
2022-09-09T08:12:19.993Z,23.63
2022-09-09T08:15:22.458Z,23.36
2022-09-09T08:18:25.075Z,23.73
2022-09-09T08:21:30.749Z,24.19
2022-09-09T08:24:33.501Z,24.67
2022-09-09T08:27:36.095Z,24.67
2022-09-09T08:30:39.074Z,24.28
2022-09-09T08:33:42.388Z,24.44
2022-09-09T08:36:47.173Z,24.79
2022-09-09T08:39:54.017Z,24.54
2022-09-09T08:43:03.887Z,24.68
2022-09-09T08:46:11.607Z,25.07
2022-09-09T08:49:29.448Z,25.04
2022-09-09T08:52:40.029Z,25.04
2022-09-09T08:55:47.405Z,24.83
2022-09-09T08:58:51.647Z,25.31
2022-09-09T09:02:04.764Z,25.25
2022-09-09T09:05:21.192Z,25.58
2022-09-09T09:08:34.738Z,25.40
2022-09-09T09:11:39.848Z,25.64
2022-09-09T09:14:44.617Z,25.65
2022-09-09T09:17:47.783Z,25.92
2022-09-09T09:20:59.508Z,26.18
2022-09-09T09:24:03.889Z,26.29
2022-09-09T09:27:15.014Z,25.41
2022-09-09T09:30:28.988Z,24.90
2022-09-09T09:33:41.706Z,24.20
2022-09-09T09:36:47.326Z,24.13
2022-09-09T09:40:06.523Z,24.72
2022-09-09T09:43:22.214Z,25.31
2022-09-09T09:46:27.214Z,25.04
2022-09-09T09:49:30.607Z,24.58
2022-09-09T09:52:35.907Z,24.10
2022-09-09T09:55:57.120Z,23.59
2022-09-09T09:59:00.167Z,23.27
2022-09-09T10:02:24.247Z,23.01
2022-09-09T10:05:31.576Z,22.99
2022-09-09T10:08:47.431Z,22.83
2022-09-09T10:11:59.384Z,22.52
2022-09-09T10:15:09.253Z,22.51
2022-09-09T10:18:24.517Z,22.58
2022-09-09T10:21:43.857Z,23.09
2022-09-09T10:25:13.313Z,23.47
2022-09-09T10:28:34.973Z,24.64
2022-09-09T10:31:47.641Z,26.00
2022-09-09T10:34:59.190Z,26.60
2022-09-09T10:38:15.779Z,26.09
2022-09-09T10:41:22.198Z,26.48
2022-09-09T10:44:59.686Z,27.35
2022-09-09T10:48:14.312Z,26.31
2022-09-09T10:51:26.358Z,24.58
2022-09-09T10:54:44.927Z,24.89
2022-09-09T10:57:50.187Z,25.26
2022-09-09T11:00:58.407Z,25.31
2022-09-09T11:04:07.578Z,25.51
2022-09-09T11:07:18.518Z,25.93
2022-09-09T11:10:26.649Z,26.76
2022-09-09T11:13:37.123Z,26.68
2022-09-09T11:16:49.165Z,26.47
2022-09-09T11:19:51.885Z,25.69
2022-09-09T11:23:01.232Z,25.53
2022-09-09T11:26:07.005Z,25.54
2022-09-09T11:29:29.511Z,25.26
2022-09-09T11:33:09.109Z,25.21
2022-09-09T11:36:28.847Z,25.93
2022-09-09T11:39:55.781Z,25.48
2022-09-09T11:43:07.443Z,26.17
2022-09-09T11:46:10.791Z,25.80
2022-09-09T11:49:29.649Z,25.15
2022-09-09T11:52:39.126Z,25.49
2022-09-09T11:55:42.018Z,27.10
2022-09-09T11:58:55.404Z,26.36
2022-09-09T12:01:59.274Z,25.70
2022-09-09T12:05:07.480Z,26.15
2022-09-09T12:08:13.007Z,25.84
2022-09-09T12:11:26.594Z,25.47
2022-09-09T12:14:38.425Z,25.02
2022-09-09T12:17:45.313Z,25.48
2022-09-09T12:20:59.267Z,25.18
2022-09-09T12:24:09.122Z,24.71
2022-09-09T12:27:20.649Z,24.76
2022-09-09T12:30:27.588Z,25.06
2022-09-09T12:33:37.052Z,24.57
2022-09-09T12:36:43.208Z,24.06
2022-09-09T12:39:49.595Z,23.79
2022-09-09T12:42:52.290Z,23.60
2022-09-09T12:45:58.911Z,23.45
2022-09-09T12:49:01.467Z,23.53
2022-09-09T12:52:10.864Z,23.63
2022-09-09T12:55:19.852Z,23.89
2022-09-09T12:58:22.886Z,23.97
2022-09-09T13:01:27.443Z,24.20
2022-09-09T13:04:30.069Z,25.53
2022-09-09T13:07:33.862Z,26.35
2022-09-09T13:11:01.809Z,25.80
2022-09-09T13:14:04.555Z,24.96
2022-09-09T13:17:08.998Z,24.32
2022-09-09T13:20:18.734Z,25.16
2022-09-09T13:23:23.678Z,25.26
2022-09-09T13:26:28.157Z,25.25
2022-09-09T13:29:32.270Z,24.92
2022-09-09T13:32:34.681Z,24.55
2022-09-09T13:35:47.794Z,24.10
2022-09-09T13:39:00.462Z,23.88
2022-09-09T13:42:04.759Z,23.73
2022-09-09T13:45:08.455Z,23.67
2022-09-09T13:48:14.547Z,23.96
2022-09-09T13:51:34.148Z,24.14
2022-09-09T13:54:37.888Z,24.36
2022-09-09T13:57:40.351Z,24.42
2022-09-09T14:00:43.895Z,24.57
2022-09-09T14:03:46.361Z,24.33
2022-09-09T14:06:49.789Z,24.20
2022-09-09T14:09:53.581Z,24.16
2022-09-09T14:12:57.046Z,24.35
2022-09-09T14:15:59.490Z,24.53
2022-09-09T14:19:02.211Z,24.57
2022-09-09T14:22:05.819Z,24.26
2022-09-09T14:25:10.442Z,24.06
2022-09-09T14:28:13.783Z,23.82
2022-09-09T14:31:18.592Z,23.64
2022-09-09T14:34:21.160Z,23.62
2022-09-09T14:37:23.632Z,23.63
2022-09-09T14:40:27.469Z,23.47
2022-09-09T14:43:31.189Z,23.29
2022-09-09T14:46:34.294Z,23.16
2022-09-09T14:49:39.089Z,23.05
2022-09-09T14:52:43.090Z,22.94
2022-09-09T14:55:47.718Z,22.88
2022-09-09T14:58:50.306Z,22.80
2022-09-09T15:01:52.880Z,22.76
2022-09-09T15:04:58.227Z,22.72
2022-09-09T15:08:00.642Z,22.66
2022-09-09T15:11:06.135Z,22.64
2022-09-09T15:14:10.027Z,22.57
2022-09-09T15:17:13.038Z,22.52
2022-09-09T15:20:17.640Z,22.49
2022-09-09T15:23:20.146Z,22.46
2022-09-09T15:26:24.410Z,22.45
2022-09-09T15:29:27.087Z,22.44
2022-09-09T15:32:29.995Z,22.40
2022-09-09T15:35:32.522Z,22.42
2022-09-09T15:38:34.957Z,22.37
2022-09-09T15:41:38.734Z,22.39
2022-09-09T15:44:43.233Z,22.38
2022-09-09T15:47:46.244Z,22.34
2022-09-09T15:50:48.713Z,22.23
2022-09-09T15:53:55.853Z,22.17
2022-09-09T15:57:01.306Z,22.06
2022-09-09T16:00:05.907Z,21.99
2022-09-09T16:03:08.486Z,21.93
2022-09-09T16:06:11.593Z,21.88
2022-09-09T16:09:14.129Z,21.92
2022-09-09T16:12:18.059Z,21.88
2022-09-09T16:15:23.422Z,21.95
2022-09-09T16:18:25.869Z,21.92
2022-09-09T16:21:30.904Z,21.92
2022-09-09T16:24:33.401Z,21.94
2022-09-09T16:27:37.147Z,21.88
2022-09-09T16:30:39.968Z,21.98
2022-09-09T16:33:42.645Z,21.99
2022-09-09T16:36:46.186Z,21.94
2022-09-09T16:39:48.692Z,21.83
2022-09-09T16:42:52.683Z,21.76
2022-09-09T16:45:55.218Z,21.63
2022-09-09T16:48:59.693Z,21.57
2022-09-09T16:52:02.483Z,21.56
2022-09-09T16:55:06.053Z,21.48
2022-09-09T16:58:10.636Z,21.48
2022-09-09T17:01:15.014Z,21.47
2022-09-09T17:04:21.560Z,21.45
2022-09-09T17:07:24.371Z,21.47
2022-09-09T17:10:27.288Z,21.36
2022-09-09T17:13:31.133Z,21.13
2022-09-09T17:16:36.036Z,20.85
2022-09-09T17:19:38.669Z,20.45
2022-09-09T17:22:41.090Z,20.15
2022-09-09T17:25:44.175Z,19.90
2022-09-09T17:28:48.046Z,19.69
2022-09-09T17:31:50.483Z,19.47
2022-09-09T17:34:53.973Z,19.23
2022-09-09T17:37:57.015Z,19.03
2022-09-09T17:41:03.311Z,18.81
2022-09-09T17:47:15.612Z,18.39
2022-09-09T17:50:18.734Z,18.42
2022-09-09T17:53:21.282Z,18.34
2022-09-09T17:56:24.986Z,18.33
2022-09-09T17:59:28.879Z,18.22
2022-09-09T18:02:31.373Z,18.20
2022-09-09T18:05:33.961Z,18.14
2022-09-09T18:08:37.363Z,18.16
2022-09-09T18:11:43.905Z,18.08
2022-09-09T18:14:48.437Z,17.86
2022-09-09T18:17:50.870Z,17.78
2022-09-09T18:21:01.693Z,17.61
2022-09-09T18:24:06.767Z,17.49
2022-09-09T18:27:09.285Z,17.45
2022-09-09T18:30:14.629Z,17.33
2022-09-09T18:33:17.179Z,17.08
2022-09-09T18:36:21.581Z,17.10
2022-09-09T18:39:27.167Z,17.04
2022-09-09T18:42:30.166Z,17.08
2022-09-09T18:45:38.258Z,17.33
2022-09-09T18:48:41.027Z,17.50
2022-09-09T18:51:44.855Z,17.54
2022-09-09T18:54:48.177Z,17.69
2022-09-09T18:57:50.725Z,17.76
2022-09-09T19:00:54.527Z,17.75
2022-09-09T19:03:57.940Z,17.77
2022-09-09T19:07:00.433Z,17.74
2022-09-09T19:10:03.162Z,17.79
2022-09-09T19:13:05.606Z,17.80
2022-09-09T19:16:12.341Z,17.73
2022-09-09T19:19:17.130Z,17.74
2022-09-09T19:22:19.627Z,17.70
2022-09-09T19:25:22.232Z,17.70
2022-09-09T19:28:25.461Z,17.76
2022-09-09T19:31:30.337Z,17.78
2022-09-09T19:34:33.305Z,17.78
2022-09-09T19:37:36.352Z,17.77
2022-09-09T19:40:40.356Z,17.77
2022-09-09T19:43:43.036Z,17.70
2022-09-09T19:46:47.378Z,17.63
2022-09-09T19:49:50.498Z,17.65
2022-09-09T19:52:55.075Z,17.61
2022-09-09T19:55:57.547Z,17.51
2022-09-09T19:59:01.173Z,17.39
2022-09-09T20:02:05.255Z,17.37
2022-09-09T20:05:08.706Z,17.16
2022-09-09T20:08:11.129Z,17.11
2022-09-09T20:11:14.839Z,17.15
2022-09-09T20:14:18.217Z,17.07
2022-09-09T20:17:22.051Z,17.04
2022-09-09T20:20:24.759Z,17.02
2022-09-09T20:23:28.257Z,17.05
2022-09-09T20:26:33.528Z,17.01
2022-09-09T20:29:37.113Z,17.04
2022-09-09T20:32:41.979Z,16.99
2022-09-09T20:35:44.424Z,17.01
2022-09-09T20:38:48.288Z,16.98
2022-09-09T20:41:51.108Z,16.92
2022-09-09T20:44:53.572Z,16.88
2022-09-09T20:47:57.413Z,16.86
2022-09-09T20:51:05.255Z,16.68
2022-09-09T20:54:10.662Z,16.59
2022-09-09T20:57:14.572Z,16.53
2022-09-09T21:00:17.153Z,16.52
2022-09-09T21:03:21.909Z,16.28
2022-09-09T21:06:24.475Z,16.18
2022-09-09T21:09:26.922Z,16.07
2022-09-09T21:16:51.467Z,16.01
2022-09-09T21:19:57.286Z,16.04
2022-09-09T21:23:00.042Z,15.95
2022-09-09T21:26:03.903Z,15.96
2022-09-09T21:29:06.524Z,15.90
2022-09-09T21:32:08.989Z,15.86
2022-09-09T21:35:13.347Z,15.77
2022-09-09T21:38:17.806Z,15.78
2022-09-09T21:41:20.301Z,15.79
2022-09-09T21:44:22.694Z,15.90
2022-09-09T21:47:25.121Z,15.92
2022-09-09T21:50:29.450Z,15.95
2022-09-09T21:53:32.340Z,15.92
2022-09-09T21:56:35.738Z,15.90
2022-09-09T21:59:38.163Z,15.87
2022-09-09T22:02:41.881Z,15.92
2022-09-09T22:05:50.706Z,15.86
2022-09-09T22:08:57.226Z,15.84
2022-09-09T22:11:59.880Z,15.82
2022-09-09T22:15:02.438Z,15.81
2022-09-09T22:18:05.286Z,15.78
2022-09-09T22:21:11.060Z,15.73
2022-09-09T22:24:13.539Z,15.90
2022-09-09T22:27:16.919Z,15.88
2022-09-09T22:30:20.714Z,15.90
2022-09-09T22:33:24.209Z,15.98
2022-09-09T22:36:28.832Z,15.98
2022-09-09T22:39:31.423Z,15.94
2022-09-09T22:42:34.867Z,15.79
2022-09-09T22:45:37.291Z,15.81
2022-09-09T22:48:40.568Z,15.68
2022-09-09T22:51:44.584Z,15.59
2022-09-09T22:54:48.334Z,15.52
2022-09-09T22:57:50.920Z,15.46
2022-09-09T23:00:53.886Z,15.44
2022-09-09T23:03:59.162Z,15.39
2022-09-09T23:07:03.485Z,15.38
2022-09-09T23:10:07.331Z,15.38
2022-09-09T23:13:10.257Z,15.41
2022-09-09T23:16:15.679Z,15.36
2022-09-09T23:19:19.368Z,15.16
2022-09-09T23:22:24.451Z,15.13
2022-09-09T23:25:28.335Z,15.14
2022-09-09T23:28:32.043Z,15.11
2022-09-09T23:31:38.484Z,14.96
2022-09-09T23:34:41.170Z,14.95
2022-09-09T23:37:44.913Z,14.95
2022-09-09T23:40:47.417Z,14.83
2022-09-09T23:43:50.551Z,14.75
2022-09-09T23:46:53.052Z,14.73
2022-09-09T23:49:55.501Z,14.75
2022-09-09T23:52:59.277Z,14.80
2022-09-09T23:56:01.692Z,14.70
2022-09-09T23:59:05.361Z,14.63
